Flight Track Log - Related Links

Times and Time Zones

All times are in EDT time to prevent confusion due to time zone crossing. See the EGF4129 flight status page for this flight to view local times or setup timezone preferences in your user account.

Time Position Orientation Groundspeed Altitude Reporting Facility
EDT Latitude Longitude Course Direction KTS MPH feet Rate Location/Type
Tue 07:05:05 PM 40.0661 -88.3428 337° Northwest 236 272 16,000  Level Chicago Center
Tue 07:06:00 PM 40.2517 -88.3910 335° Northwest  Level FlightAware Approximate
Tue 07:06:07 PM 40.1272 -88.3758 338° Northwest 256 295 7,600  Level Chicago Center
Tue 07:07:00 PM 40.3243 -88.4303 346° North  Level FlightAware Approximate
Tue 07:07:09 PM 40.2011 -88.4183 336° Northwest 266 306 10,100  Level Chicago Center
Tue 07:08:00 PM 40.3945 -88.4792 330° Northwest  Level FlightAware Approximate
Tue 07:08:11 PM 40.2783 -88.4578 339° North 293 337 11,600  Level Chicago Center
Tue 07:09:00 PM 40.4680 -88.5198 337° Northwest  Level FlightAware Approximate
Tue 07:09:13 PM 40.3703 -88.5028 340° North 317 365 13,500  Level Chicago Center
Tue 07:10:00 PM 40.5415 -88.5618 337° Northwest  Level FlightAware Approximate
Tue 07:10:15 PM 40.4581 -88.5481 339° North 335 386 14,900  Level Chicago Center
Tue 07:11:18 PM 40.5611 -88.5983 340° North 360 414 16,100 528 Climbing Chicago Center
Tue 07:12:20 PM 40.6606 -88.6508 338° Northwest 384 442 16,000 -48 Descending Chicago Center
Tue 07:13:22 PM 40.7606 -88.7025 339° North 386 444 16,000  Level Chicago Center
Tue 07:14:24 PM 40.8614 -88.7308 348° North 379 436 16,000  Level Chicago Center
Tue 07:15:26 PM 40.9636 -88.7150 North 370 426 16,000 -242 Level Chicago Center
Tue 07:16:28 PM 41.0603 -88.6972 North 354 407 15,500 -871 Descending Chicago Center
Tue 07:17:30 PM 41.1686 -88.6811 North 325 374 14,200 -1,355 Descending Chicago Center
Tue 07:18:32 PM 41.2525 -88.6686 North 306 352 12,700 -1,056 Descending Chicago Center
Tue 07:19:35 PM 41.3339 -88.6569 North 297 342 12,000 -480 Descending Chicago Center
Tue 07:20:37 PM 41.4156 -88.6433 North 295 339 11,700 -484 Descending Chicago Center
Tue 07:21:39 PM 41.4803 -88.5833 35° Northeast 294 338 11,000 -339 Descending Chicago Center
Tue 07:22:41 PM 41.5286 -88.4767 59° Northeast 284 327 11,000 -823 Level Chicago Center
Tue 07:23:43 PM 41.5572 -88.3778 69° East 287 330 9,300 -1,452 Descending Chicago Center
Tue 07:24:45 PM 41.6083 -88.3042 47° Northeast 278 320 8,000 -629 Descending Chicago Center
Tue 07:25:47 PM 41.6656 -88.2389 40° Northeast 269 310 8,000 -435 Level Chicago Center
Tue 07:26:49 PM 41.7206 -88.1728 42° Northeast 266 306 7,100 -1,210 Descending Chicago Center
Tue 07:27:51 PM 41.7692 -88.1169 41° Northeast 241 277 5,500 -1,392 Descending Chicago Center
Tue 07:28:54 PM 41.8161 -88.0611 42° Northeast 207 238 4,200 -1,056 Descending Chicago Center
Tue 07:29:56 PM 41.8533 -88.0178 41° Northeast 191 220 3,300 -919 Descending Chicago Center
Tue 07:30:45 PM 41.8833 -87.9833 41° Northeast 174 200 2,500 -932 Descending Chicago TRACON
Tue 07:31:39 PM 41.9167 -87.9500 37° Northeast 141 162 1,700 -789 Descending Chicago TRACON
Tue 07:32:39 PM 41.9333 -87.9167 56° Northeast 132 152 1,000 -700 Descending Chicago TRACON

Login

Don't have an account? Register now (free) for customized features, flight alerts, and more!